Time;durP1;ratioP1;P1;durP2;ratioP2;P2;SDS_P1;SDS_P2;PMS_P1;PMS_P2;Temp;Humidity;BMP_temperature;BMP_pressure;BME280_temperature;BME280_humidity;BME280_pressure;Samples;Min_cycle;Max_cycle;Signal;HPM_P1;HPM_P2
2023/08/27 00:02:08;;;;;;;0.82;0.50;;;28.20;59.90;;;;;;6367282;22;20174;-89
2023/08/27 00:04:37;;;;;;;0.90;0.55;;;28.20;59.90;;;;;;6368406;22;20148;-89
2023/08/27 00:07:06;;;;;;;0.52;0.50;;;28.20;60.20;;;;;;6368571;22;20217;-88
2023/08/27 00:09:36;;;;;;;1.95;1.15;;;28.10;60.40;;;;;;6367993;22;20612;-86
2023/08/27 00:12:06;;;;;;;0.98;0.73;;;28.10;60.70;;;;;;6367445;22;20217;-88
2023/08/27 00:14:35;;;;;;;0.60;0.60;;;28.10;60.80;;;;;;6369743;22;20163;-89
2023/08/27 00:17:03;;;;;;;0.88;0.75;;;28.00;61.10;;;;;;6366124;22;20192;-88
2023/08/27 00:19:32;;;;;;;2.40;1.10;;;27.90;61.30;;;;;;6368218;22;20172;-86
2023/08/27 00:22:01;;;;;;;0.68;0.68;;;27.90;61.60;;;;;;6367182;22;20160;-88
2023/08/27 00:24:29;;;;;;;0.75;0.50;;;27.80;61.60;;;;;;6367916;22;20187;-89
2023/08/27 00:27:03;;;;;;;0.32;0.32;;;27.80;61.60;;;;;;6367884;22;20199;-90
2023/08/27 00:29:32;;;;;;;0.40;0.40;;;27.80;61.60;;;;;;6367121;22;20220;-89
2023/08/27 00:32:04;;;;;;;0.60;0.50;;;27.80;61.50;;;;;;6367834;22;20235;-88
2023/08/27 00:34:51;;;;;;;0.63;0.45;;;27.70;61.50;;;;;;6367311;22;20160;-88
2023/08/27 00:37:21;;;;;;;0.35;0.35;;;27.70;61.40;;;;;;6366658;22;20202;-87
2023/08/27 00:39:53;;;;;;;1.35;0.57;;;27.70;61.90;;;;;;6368414;22;20476;-87
2023/08/27 00:42:26;;;;;;;1.60;0.88;;;27.70;61.80;;;;;;6367625;22;20160;-88
2023/08/27 00:44:54;;;;;;;0.43;0.43;;;27.70;62.40;;;;;;6366388;22;20246;-87
2023/08/27 00:47:23;;;;;;;0.65;0.40;;;27.70;62.10;;;;;;6367013;22;20160;-87
2023/08/27 00:49:52;;;;;;;0.43;0.43;;;27.60;62.40;;;;;;6366486;22;20268;-89
2023/08/27 00:52:21;;;;;;;0.77;0.43;;;27.60;62.30;;;;;;6367658;22;20163;-87
2023/08/27 00:54:51;;;;;;;0.57;0.57;;;27.60;62.30;;;;;;6365451;22;20601;-87
2023/08/27 00:57:22;;;;;;;0.43;0.32;;;27.60;62.10;;;;;;6366807;22;20184;-89
2023/08/27 00:59:50;;;;;;;0.73;0.73;;;27.60;62.30;;;;;;6367119;22;20593;-89
2023/08/27 01:02:19;;;;;;;0.40;0.40;;;27.60;62.10;;;;;;6366423;22;20170;-87
2023/08/27 01:04:51;;;;;;;0.30;0.30;;;27.60;62.20;;;;;;6367896;22;20490;-88
2023/08/27 01:07:38;;;;;;;0.73;0.50;;;27.50;62.00;;;;;;6367221;22;20214;-89
2023/08/27 01:10:40;;;;;;;0.63;0.57;;;27.50;62.00;;;;;;6368293;22;20160;-90
2023/08/27 01:13:17;;;;;;;0.65;0.57;;;27.50;62.00;;;;;;6367970;22;20179;-90
2023/08/27 01:15:49;;;;;;;0.68;0.68;;;27.50;61.90;;;;;;6366961;22;20217;-87
2023/08/27 01:18:18;;;;;;;0.55;0.52;;;27.50;61.80;;;;;;6366600;22;20192;-85
2023/08/27 01:20:47;;;;;;;0.75;0.63;;;27.50;62.00;;;;;;6365692;22;20168;-87
2023/08/27 01:23:17;;;;;;;0.57;0.57;;;27.50;62.00;;;;;;6366626;22;20243;-89
2023/08/27 01:25:50;;;;;;;0.50;0.50;;;27.40;61.80;;;;;;6367669;22;20221;-88
2023/08/27 01:28:26;;;;;;;0.65;0.60;;;27.40;61.90;;;;;;6367415;22;20187;-87
2023/08/27 01:31:00;;;;;;;1.17;0.65;;;27.40;62.10;;;;;;6365964;22;20163;-89
2023/08/27 01:33:31;;;;;;;1.13;0.98;;;27.40;62.40;;;;;;6365866;22;20190;-86
2023/08/27 01:36:00;;;;;;;0.25;0.25;;;27.40;62.30;;;;;;6366064;22;20166;-87
2023/08/27 01:38:30;;;;;;;1.80;0.65;;;27.40;62.20;;;;;;6367807;22;20192;-87
2023/08/27 01:40:59;;;;;;;1.05;0.50;;;27.40;62.10;;;;;;6366238;22;20692;-87
2023/08/27 01:43:28;;;;;;;0.38;0.38;;;27.30;62.50;;;;;;6366757;22;20159;-89
2023/08/27 01:45:57;;;;;;;0.65;0.57;;;27.30;62.60;;;;;;6366399;22;20242;-89
2023/08/27 01:48:26;;;;;;;0.63;0.40;;;27.30;62.50;;;;;;6366895;22;20189;-87
2023/08/27 01:50:58;;;;;;;0.55;0.45;;;27.30;62.40;;;;;;6368479;22;20266;-88
2023/08/27 01:53:28;;;;;;;0.40;0.40;;;27.30;62.30;;;;;;6367809;22;20532;-89
2023/08/27 01:55:59;;;;;;;0.30;0.30;;;27.30;62.30;;;;;;6367916;22;20164;-87
2023/08/27 01:58:29;;;;;;;0.35;0.35;;;27.30;62.50;;;;;;6368642;22;20245;-90
2023/08/27 02:00:58;;;;;;;0.38;0.38;;;27.30;63.20;;;;;;6367572;22;20523;-88
2023/08/27 02:03:27;;;;;;;0.20;0.20;;;27.20;62.40;;;;;;6368346;22;20175;-88
2023/08/27 02:05:55;;;;;;;0.20;0.20;;;27.20;62.50;;;;;;6367731;22;20621;-87
2023/08/27 02:08:28;;;;;;;0.80;0.80;;;27.20;62.70;;;;;;6367329;22;20234;-88
2023/08/27 02:10:59;;;;;;;0.90;0.80;;;27.20;62.70;;;;;;6366883;22;20243;-89
2023/08/27 02:13:30;;;;;;;0.40;0.40;;;27.20;63.20;;;;;;6367065;22;20167;-90
2023/08/27 02:15:59;;;;;;;0.30;0.30;;;27.20;62.60;;;;;;6366648;22;20198;-87
2023/08/27 02:18:28;;;;;;;0.20;0.20;;;27.20;62.80;;;;;;6366994;22;20193;-88
2023/08/27 02:20:58;;;;;;;0.40;0.40;;;27.20;62.90;;;;;;6366025;22;20170;-90
2023/08/27 02:23:27;;;;;;;0.20;0.20;;;27.20;62.80;;;;;;6365808;22;20156;-87
2023/08/27 02:25:55;;;;;;;1.75;0.43;;;27.10;62.70;;;;;;6368055;22;20222;-89
2023/08/27 02:28:27;;;;;;;0.30;0.30;;;27.10;62.80;;;;;;6365921;22;20187;-87
2023/08/27 02:30:56;;;;;;;0.35;0.35;;;27.10;62.90;;;;;;6366691;22;20243;-88
2023/08/27 02:33:25;;;;;;;0.20;0.20;;;27.10;63.00;;;;;;6367374;22;20160;-89
2023/08/27 02:35:53;;;;;;;0.30;0.30;;;27.10;63.30;;;;;;6365907;22;20256;-90
2023/08/27 02:38:23;;;;;;;1.88;0.65;;;27.10;63.40;;;;;;6365790;22;21056;-88
2023/08/27 02:40:51;;;;;;;1.20;0.80;;;27.10;63.60;;;;;;6366605;22;20179;-89
2023/08/27 02:43:22;;;;;;;1.33;0.77;;;27.10;63.90;;;;;;6367538;22;20205;-86
2023/08/27 02:45:53;;;;;;;1.35;0.82;;;27.00;64.00;;;;;;6366717;22;20170;-88
2023/08/27 02:48:23;;;;;;;0.65;0.43;;;27.00;63.90;;;;;;6368388;22;20152;-87
2023/08/27 02:50:55;;;;;;;0.35;0.30;;;27.00;64.30;;;;;;6366230;22;20232;-89
2023/08/27 02:53:24;;;;;;;0.50;0.47;;;27.00;64.20;;;;;;6366607;22;20164;-88
2023/08/27 02:55:57;;;;;;;0.28;0.28;;;27.00;64.30;;;;;;6366998;22;20170;-89
2023/08/27 02:58:26;;;;;;;0.50;0.50;;;27.00;64.20;;;;;;6367974;22;20267;-88
2023/08/27 03:00:58;;;;;;;0.38;0.38;;;27.00;64.20;;;;;;6364587;22;20164;-86
2023/08/27 03:03:27;;;;;;;0.77;0.75;;;27.00;64.40;;;;;;6365159;22;20160;-86
2023/08/27 03:06:01;;;;;;;1.83;1.00;;;27.00;64.50;;;;;;6364847;22;20171;-89
2023/08/27 03:08:30;;;;;;;0.52;0.50;;;26.90;64.60;;;;;;6367214;22;20167;-88
2023/08/27 03:10:58;;;;;;;0.30;0.30;;;26.90;64.70;;;;;;6366107;22;20164;-89
2023/08/27 03:13:27;;;;;;;1.70;0.57;;;26.90;64.90;;;;;;6367575;22;20550;-89
2023/08/27 03:16:00;;;;;;;0.30;0.30;;;26.90;64.90;;;;;;6365634;22;20225;-91
2023/08/27 03:18:31;;;;;;;0.40;0.40;;;26.90;64.90;;;;;;6365335;22;20185;-87
2023/08/27 03:21:00;;;;;;;0.57;0.57;;;26.90;65.00;;;;;;6365505;22;20502;-88
2023/08/27 03:23:30;;;;;;;0.50;0.50;;;26.90;65.00;;;;;;6366782;22;20160;-89
2023/08/27 03:25:59;;;;;;;0.40;0.40;;;26.80;65.10;;;;;;6366208;22;20190;-89
2023/08/27 03:28:27;;;;;;;0.52;0.30;;;26.80;65.20;;;;;;6367240;22;20271;-88
2023/08/27 03:30:58;;;;;;;0.60;0.45;;;26.80;65.30;;;;;;6364870;22;20168;-89
2023/08/27 03:33:27;;;;;;;0.57;0.57;;;26.80;65.60;;;;;;6367040;22;20234;-88
2023/08/27 03:35:58;;;;;;;0.35;0.35;;;26.80;66.90;;;;;;6365186;22;20255;-88
2023/08/27 03:38:26;;;;;;;0.40;0.32;;;26.70;66.10;;;;;;6368528;22;20266;-89
2023/08/27 03:40:57;;;;;;;0.43;0.43;;;26.70;66.10;;;;;;6367899;22;20270;-88
2023/08/27 03:43:25;;;;;;;1.45;1.05;;;26.70;66.20;;;;;;6369484;22;20597;-88
2023/08/27 03:45:55;;;;;;;1.55;0.50;;;26.70;66.90;;;;;;6367562;22;20160;-89
2023/08/27 03:48:32;;;;;;;0.52;0.52;;;26.70;66.70;;;;;;6369044;22;20167;-89
2023/08/27 03:51:01;;;;;;;0.63;0.60;;;26.70;66.90;;;;;;6363436;22;20574;-88
2023/08/27 03:53:30;;;;;;;0.28;0.28;;;26.60;67.80;;;;;;6368965;22;20612;-89
2023/08/27 03:56:03;;;;;;;2.08;0.68;;;26.70;67.90;;;;;;6365906;22;20172;-88
2023/08/27 03:58:32;;;;;;;5.45;0.80;;;26.60;69.70;;;;;;6367332;22;20223;-86
2023/08/27 04:01:00;;;;;;;0.40;0.40;;;26.60;69.70;;;;;;6367195;22;20171;-88
2023/08/27 04:03:30;;;;;;;0.30;0.30;;;26.60;69.70;;;;;;6368661;22;20534;-88
2023/08/27 04:06:05;;;;;;;0.30;0.30;;;26.60;69.30;;;;;;6367470;22;20164;-87
2023/08/27 04:08:34;;;;;;;0.47;0.40;;;26.60;69.10;;;;;;6367924;22;20242;-87
2023/08/27 04:11:04;;;;;;;0.35;0.35;;;26.60;69.30;;;;;;6364156;22;20168;-88
2023/08/27 04:14:06;;;;;;;0.30;0.30;;;26.60;69.20;;;;;;6361032;22;20164;-88
2023/08/27 04:20:20;;;;;;;0.45;0.30;;;26.60;69.70;;;;;;6367395;22;20240;-88
2023/08/27 04:22:50;;;;;;;0.63;0.63;;;26.60;69.70;;;;;;6367199;22;20628;-86
2023/08/27 04:25:28;;;;;;;0.35;0.35;;;26.60;70.20;;;;;;6366825;22;20159;-87
2023/08/27 04:48:19;;;;;;;0.85;0.50;;;26.70;72.20;;;;;;6329046;22;20261;-90
2023/08/27 05:10:52;;;;;;;0.50;0.50;;;27.00;73.00;;;;;;6306704;22;20180;-90
2023/08/27 05:25:17;;;;;;;0.82;0.82;;;27.10;75.00;;;;;;6333195;22;20570;-87
2023/08/27 05:28:25;;;;;;;0.32;0.32;;;27.20;75.50;;;;;;6234017;22;20176;-88
2023/08/27 05:30:54;;;;;;;1.33;0.77;;;27.20;75.60;;;;;;6332788;22;20251;-88
2023/08/27 05:33:23;;;;;;;0.55;0.55;;;27.20;76.60;;;;;;6335204;22;20646;-86
2023/08/27 05:35:51;;;;;;;1.13;0.90;;;27.20;76.40;;;;;;6334742;22;20165;-87
2023/08/27 05:38:20;;;;;;;2.25;0.77;;;27.20;76.20;;;;;;6333076;22;20175;-86
2023/08/27 05:40:52;;;;;;;0.50;0.50;;;27.30;76.30;;;;;;6336110;22;20195;-87
2023/08/27 05:43:24;;;;;;;0.77;0.70;;;27.30;75.80;;;;;;6335628;22;20207;-91
2023/08/27 05:58:51;;;;;;;0.35;0.30;;;27.60;74.90;;;;;;6301569;22;20173;-88
2023/08/27 06:01:22;;;;;;;0.50;0.50;;;27.70;74.70;;;;;;6315841;22;20239;-86
2023/08/27 06:03:51;;;;;;;0.70;0.50;;;27.70;74.70;;;;;;6336660;22;20168;-86
2023/08/27 06:06:20;;;;;;;0.25;0.25;;;27.80;74.60;;;;;;6332755;22;20235;-83
2023/08/27 06:08:48;;;;;;;0.70;0.60;;;27.80;74.50;;;;;;6333379;22;20381;-88
2023/08/27 06:11:16;;;;;;;1.48;0.68;;;27.90;74.40;;;;;;6333043;22;20605;-85
2023/08/27 06:13:45;;;;;;;0.90;0.77;;;27.90;74.40;;;;;;6334509;22;20561;-84
2023/08/27 06:16:17;;;;;;;0.65;0.65;;;28.00;74.50;;;;;;6335404;22;20188;-88
2023/08/27 06:18:46;;;;;;;0.85;0.80;;;28.00;74.40;;;;;;6332465;22;20195;-83
2023/08/27 06:21:14;;;;;;;0.73;0.55;;;28.00;74.80;;;;;;6333862;22;20196;-84
2023/08/27 06:23:43;;;;;;;0.73;0.55;;;28.10;75.00;;;;;;6334988;22;20243;-86
2023/08/27 06:26:11;;;;;;;0.63;0.60;;;28.20;74.70;;;;;;6333584;22;20278;-85
2023/08/27 06:28:40;;;;;;;0.85;0.85;;;28.20;74.60;;;;;;6332760;22;21032;-84
2023/08/27 06:31:08;;;;;;;1.20;0.70;;;28.30;74.70;;;;;;6331337;22;20191;-85
2023/08/27 06:33:38;;;;;;;0.63;0.63;;;28.30;74.60;;;;;;6335722;22;20164;-86
2023/08/27 06:36:07;;;;;;;0.70;0.40;;;28.40;74.50;;;;;;6335161;22;20180;-85
2023/08/27 06:38:35;;;;;;;0.32;0.32;;;28.40;74.30;;;;;;6333294;22;20614;-88
2023/08/27 06:41:04;;;;;;;1.38;0.73;;;28.50;74.10;;;;;;6335906;22;20180;-87
2023/08/27 06:43:33;;;;;;;0.85;0.60;;;28.50;73.80;;;;;;6334665;22;20183;-86
2023/08/27 06:46:02;;;;;;;0.70;0.60;;;28.60;73.50;;;;;;6332465;22;20610;-87
2023/08/27 06:48:32;;;;;;;0.95;0.75;;;28.60;73.20;;;;;;6334520;22;20230;-84
2023/08/27 06:51:02;;;;;;;1.27;0.80;;;28.70;73.10;;;;;;6334616;22;20171;-86
2023/08/27 06:53:33;;;;;;;0.98;0.70;;;28.70;72.90;;;;;;6338338;22;20152;-87
2023/08/27 06:56:01;;;;;;;0.35;0.35;;;28.80;72.70;;;;;;6334563;22;20153;-86
2023/08/27 06:58:31;;;;;;;2.05;0.60;;;28.90;72.60;;;;;;6338374;22;20164;-90
2023/08/27 07:01:33;;;;;;;0.60;0.50;;;28.90;72.30;;;;;;6340381;22;20252;-84
2023/08/27 07:04:03;;;;;;;0.70;0.70;;;29.00;72.80;;;;;;6310496;22;21193;-84
2023/08/27 07:06:33;;;;;;;0.95;0.80;;;29.00;71.70;;;;;;6333377;22;20171;-85
2023/08/27 07:09:02;;;;;;;3.53;1.05;;;29.10;71.60;;;;;;6335281;22;20234;-83
2023/08/27 07:15:14;;;;;;;0.50;0.50;;;29.20;70.30;;;;;;6335101;22;20227;-86
2023/08/27 07:17:42;;;;;;;1.77;0.70;;;29.20;70.10;;;;;;6336604;22;20188;-85
2023/08/27 07:20:13;;;;;;;1.15;0.95;;;29.30;69.90;;;;;;6332913;22;20267;-84
2023/08/27 07:22:43;;;;;;;0.50;0.50;;;29.30;69.30;;;;;;6335313;22;20152;-83
2023/08/27 07:25:14;;;;;;;1.15;0.77;;;29.40;69.20;;;;;;6334475;22;20169;-87
2023/08/27 07:27:46;;;;;;;0.40;0.38;;;29.50;68.90;;;;;;6334501;22;20160;-84
2023/08/27 07:30:15;;;;;;;0.57;0.55;;;29.50;68.10;;;;;;6330798;22;20477;-82
2023/08/27 07:32:43;;;;;;;0.40;0.40;;;29.60;66.40;;;;;;6336999;22;20168;-83
2023/08/27 07:35:12;;;;;;;1.45;0.70;;;29.60;66.30;;;;;;6335719;22;20248;-83
2023/08/27 07:37:40;;;;;;;0.77;0.77;;;29.70;65.70;;;;;;6335906;22;20171;-84
2023/08/27 07:40:11;;;;;;;1.27;0.50;;;29.80;65.30;;;;;;6335736;22;20188;-85
2023/08/27 07:42:40;;;;;;;1.75;0.70;;;29.80;64.10;;;;;;6336658;22;20164;-85
2023/08/27 07:45:11;;;;;;;0.93;0.63;;;29.80;63.80;;;;;;6336375;22;20161;-84
2023/08/27 07:47:40;;;;;;;2.72;0.85;;;29.90;63.70;;;;;;6335041;22;20165;-82
2023/08/27 07:50:09;;;;;;;0.40;0.40;;;29.90;63.30;;;;;;6329354;22;20698;-85
2023/08/27 07:52:37;;;;;;;0.70;0.45;;;29.90;63.40;;;;;;6333832;22;20155;-85
2023/08/27 07:55:07;;;;;;;1.15;1.05;;;30.00;63.20;;;;;;6334280;22;20455;-83
2023/08/27 07:57:37;;;;;;;0.30;0.30;;;30.10;62.40;;;;;;6335507;22;20168;-83
2023/08/27 08:00:07;;;;;;;0.60;0.60;;;30.10;61.30;;;;;;6335002;22;20633;-83
2023/08/27 08:02:36;;;;;;;0.50;0.50;;;30.20;61.40;;;;;;6336930;22;20186;-81
2023/08/27 08:05:05;;;;;;;0.90;0.60;;;30.30;61.40;;;;;;6335014;22;20679;-82
2023/08/27 08:07:35;;;;;;;0.40;0.40;;;30.30;61.00;;;;;;6337321;22;20175;-83
2023/08/27 08:10:03;;;;;;;1.75;1.30;;;30.40;60.20;;;;;;6334171;22;20247;-83
2023/08/27 08:12:32;;;;;;;0.40;0.35;;;30.40;59.70;;;;;;6335682;22;20503;-84
2023/08/27 08:15:01;;;;;;;2.38;0.57;;;30.50;59.60;;;;;;6333563;22;20693;-83
2023/08/27 08:17:33;;;;;;;0.60;0.60;;;30.50;59.00;;;;;;6334954;22;20175;-85
2023/08/27 08:20:13;;;;;;;1.75;0.47;;;30.60;58.90;;;;;;6333428;22;20493;-84
2023/08/27 08:22:42;;;;;;;0.70;0.50;;;30.70;59.20;;;;;;6334024;22;20175;-83
2023/08/27 08:25:10;;;;;;;0.55;0.55;;;30.70;59.30;;;;;;6333574;22;20546;-83
2023/08/27 08:27:41;;;;;;;1.08;0.77;;;30.80;58.90;;;;;;6335094;22;20344;-85
2023/08/27 08:30:12;;;;;;;5.30;0.80;;;30.80;58.40;;;;;;6334286;22;20186;-82
2023/08/27 08:32:40;;;;;;;0.30;0.30;;;30.90;58.30;;;;;;6333344;22;20589;-83
2023/08/27 08:35:09;;;;;;;0.68;0.68;;;30.90;58.20;;;;;;6333122;22;20609;-82
2023/08/27 08:37:37;;;;;;;0.60;0.60;;;30.90;58.10;;;;;;6334078;22;20173;-82
2023/08/27 08:40:07;;;;;;;0.90;0.90;;;31.00;58.10;;;;;;6334022;22;20214;-84
2023/08/27 08:42:40;;;;;;;0.68;0.50;;;31.10;58.30;;;;;;6335051;22;20222;-84
2023/08/27 08:45:16;;;;;;;1.58;0.90;;;31.10;58.10;;;;;;6334138;22;20156;-84
2023/08/27 08:48:02;;;;;;;0.43;0.38;;;31.20;57.60;;;;;;6329299;22;20210;-83
2023/08/27 08:50:33;;;;;;;0.65;0.65;;;31.30;57.50;;;;;;6332741;22;20161;-84
2023/08/27 08:53:07;;;;;;;0.60;0.57;;;31.30;57.30;;;;;;6334537;22;20232;-85
2023/08/27 08:55:37;;;;;;;0.60;0.60;;;31.30;56.80;;;;;;6335528;22;20492;-83
2023/08/27 08:58:12;;;;;;;2.38;1.45;;;31.40;56.70;;;;;;6336467;22;20624;-83
2023/08/27 09:00:42;;;;;;;0.90;0.55;;;31.40;56.10;;;;;;6333337;22;20156;-85
2023/08/27 09:03:12;;;;;;;0.73;0.73;;;31.50;55.90;;;;;;6334256;22;20247;-85
2023/08/27 09:05:41;;;;;;;0.57;0.50;;;31.50;56.00;;;;;;6334207;22;20159;-84
2023/08/27 09:08:16;;;;;;;0.30;0.30;;;31.60;55.60;;;;;;6334139;22;20175;-87
2023/08/27 09:10:45;;;;;;;0.75;0.75;;;31.60;55.30;;;;;;6336279;22;20152;-83
2023/08/27 09:13:20;;;;;;;0.60;0.60;;;31.70;55.40;;;;;;6335519;22;20252;-85
2023/08/27 09:15:50;;;;;;;0.85;0.43;;;31.70;55.30;;;;;;6336452;22;20191;-84
2023/08/27 09:18:21;;;;;;;0.60;0.60;;;31.80;55.10;;;;;;6335127;22;20168;-83
2023/08/27 09:20:51;;;;;;;1.98;1.20;;;31.80;55.20;;;;;;6337452;22;20157;-84
2023/08/27 09:23:20;;;;;;;1.42;0.70;;;31.90;55.20;;;;;;6334946;22;20195;-87
2023/08/27 09:29:09;;;;;;;0.40;0.40;;;32.00;55.20;;;;;;6297725;22;20194;-90
2023/08/27 09:31:42;;;;;;;0.98;0.82;;;32.10;54.90;;;;;;6335312;22;20148;-89
2023/08/27 09:34:14;;;;;;;0.30;0.30;;;32.10;54.10;;;;;;6307345;22;20239;-84
2023/08/27 09:36:42;;;;;;;0.70;0.70;;;32.20;54.30;;;;;;6330735;22;20156;-86
2023/08/27 09:39:13;;;;;;;0.80;0.80;;;32.30;54.20;;;;;;6334384;22;20160;-88
2023/08/27 09:41:51;;;;;;;0.57;0.52;;;32.30;54.10;;;;;;6334964;22;20617;-91
2023/08/27 09:44:36;;;;;;;0.50;0.50;;;32.30;53.60;;;;;;6336866;22;20188;-89
2023/08/27 09:47:08;;;;;;;1.75;0.75;;;32.40;53.70;;;;;;6334279;22;20247;-87
2023/08/27 09:49:43;;;;;;;1.23;1.13;;;32.50;53.60;;;;;;6336025;22;20149;-88
2023/08/27 09:52:30;;;;;;;0.85;0.77;;;32.50;53.50;;;;;;6336456;22;20195;-87
2023/08/27 09:54:59;;;;;;;1.65;0.70;;;32.60;53.80;;;;;;6336833;22;20174;-87
2023/08/27 09:57:30;;;;;;;2.05;0.98;;;32.70;53.20;;;;;;6336315;22;20164;-88
2023/08/27 09:59:59;;;;;;;0.90;0.75;;;32.70;53.00;;;;;;6332051;22;20242;-86
2023/08/27 10:02:29;;;;;;;0.80;0.80;;;32.80;53.30;;;;;;6335641;22;20547;-88
2023/08/27 10:04:58;;;;;;;0.65;0.65;;;32.90;52.90;;;;;;6334884;22;20164;-86
2023/08/27 10:07:26;;;;;;;1.17;0.73;;;32.90;52.20;;;;;;6334719;22;20610;-86
2023/08/27 10:10:06;;;;;;;0.38;0.38;;;32.90;52.10;;;;;;6332472;22;20256;-88
2023/08/27 10:12:43;;;;;;;0.80;0.43;;;33.00;51.80;;;;;;6333835;22;20152;-88
2023/08/27 10:15:15;;;;;;;1.55;0.95;;;33.10;51.40;;;;;;6336274;22;20149;-85
2023/08/27 10:35:00;;;;;;;1.13;0.90;;;33.50;50.00;;;;;;6305198;22;20193;-87
2023/08/27 10:37:38;;;;;;;0.40;0.40;;;33.50;49.40;;;;;;6304794;22;20157;-87
2023/08/27 10:40:30;;;;;;;4.68;0.77;;;33.60;49.60;;;;;;6303641;22;20547;-87
2023/08/27 10:43:35;;;;;;;0.47;0.47;;;33.60;49.10;;;;;;6287778;22;20221;-87
2023/08/27 10:46:40;;;;;;;1.10;0.75;;;33.70;49.60;;;;;;6301505;22;20164;-88
2023/08/27 10:58:20;;;;;;;0.40;0.40;;;34.00;49.10;;;;;;6326523;22;20204;-87
2023/08/27 11:08:43;;;;;;;0.40;0.40;;;34.10;48.10;;;;;;6196331;23;20201;-89
2023/08/27 11:11:15;;;;;;;0.57;0.57;;;34.20;48.30;;;;;;6328267;22;20169;-88
2023/08/27 11:14:20;;;;;;;2.08;0.65;;;34.20;47.30;;;;;;6334692;22;20635;-91
2023/08/27 11:22:28;;;;;;;1.58;0.63;;;34.40;47.70;;;;;;6326033;22;20576;-88
2023/08/27 11:25:20;;;;;;;0.65;0.60;;;34.40;47.40;;;;;;6285950;22;20204;-83
2023/08/27 11:27:50;;;;;;;1.00;0.68;;;34.50;47.30;;;;;;6335037;22;20602;-86
2023/08/27 11:30:20;;;;;;;0.55;0.45;;;34.60;47.70;;;;;;6332305;22;20772;-87
2023/08/27 11:32:48;;;;;;;0.82;0.50;;;34.60;47.80;;;;;;6334728;22;20247;-84
2023/08/27 11:35:23;;;;;;;0.38;0.38;;;34.70;47.40;;;;;;6336550;22;20621;-86
2023/08/27 11:37:52;;;;;;;1.33;0.88;;;34.70;47.10;;;;;;6334756;22;20206;-86
2023/08/27 11:40:22;;;;;;;0.93;0.70;;;34.80;47.30;;;;;;6334248;22;20210;-85
2023/08/27 11:42:51;;;;;;;0.30;0.30;;;34.80;46.50;;;;;;6332024;22;20217;-85
2023/08/27 11:45:30;;;;;;;0.30;0.30;;;34.80;46.10;;;;;;6335369;22;20495;-91
2023/08/27 11:48:04;;;;;;;0.65;0.63;;;34.90;45.90;;;;;;6334242;22;20923;-89
2023/08/27 11:50:33;;;;;;;1.15;0.82;;;35.00;46.20;;;;;;6335290;22;20264;-86
2023/08/27 11:53:02;;;;;;;0.43;0.43;;;35.00;45.60;;;;;;6334008;22;20476;-83
2023/08/27 11:55:31;;;;;;;0.70;0.70;;;35.00;45.40;;;;;;6333577;22;20172;-85
2023/08/27 11:58:00;;;;;;;1.50;0.70;;;35.00;44.90;;;;;;6330973;22;20527;-83
2023/08/27 12:00:32;;;;;;;1.98;0.70;;;35.10;45.10;;;;;;6333166;22;20164;-87
2023/08/27 12:03:01;;;;;;;0.40;0.40;;;35.10;45.50;;;;;;6333886;22;20271;-83
2023/08/27 12:05:30;;;;;;;0.60;0.55;;;35.20;45.00;;;;;;6333806;22;20809;-85
2023/08/27 12:08:06;;;;;;;1.45;0.77;;;35.10;44.40;;;;;;6335775;22;20164;-85
2023/08/27 12:10:43;;;;;;;1.17;0.52;;;35.30;44.90;;;;;;6335849;22;20171;-83
2023/08/27 12:13:11;;;;;;;0.47;0.40;;;35.30;44.60;;;;;;6334963;22;20472;-85
2023/08/27 12:15:41;;;;;;;0.50;0.50;;;35.30;44.60;;;;;;6335439;22;20196;-85
2023/08/27 12:18:10;;;;;;;0.38;0.38;;;35.30;43.90;;;;;;6336898;22;20161;-86
2023/08/27 12:20:38;;;;;;;0.52;0.52;;;35.30;43.10;;;;;;6335724;22;20613;-86
2023/08/27 12:23:11;;;;;;;1.20;0.88;;;35.30;42.90;;;;;;6335074;22;20192;-87
2023/08/27 12:25:47;;;;;;;0.63;0.57;;;35.30;43.60;;;;;;6334870;22;20196;-85
2023/08/27 12:28:15;;;;;;;0.63;0.47;;;35.30;43.20;;;;;;6335165;22;20171;-82
2023/08/27 12:30:52;;;;;;;0.98;0.93;;;35.40;43.40;;;;;;6335086;22;20222;-84
2023/08/27 12:33:21;;;;;;;0.47;0.47;;;35.40;43.40;;;;;;6333887;22;20164;-85
2023/08/27 12:35:50;;;;;;;0.55;0.55;;;35.40;43.30;;;;;;6336073;22;20172;-86
2023/08/27 12:38:18;;;;;;;0.75;0.32;;;35.40;43.50;;;;;;6335540;22;20165;-85
2023/08/27 12:40:47;;;;;;;0.32;0.32;;;35.40;43.60;;;;;;6335083;22;20267;-83
2023/08/27 12:43:15;;;;;;;0.43;0.43;;;35.50;43.60;;;;;;6334346;22;20223;-84
2023/08/27 12:45:44;;;;;;;1.00;0.88;;;35.50;43.80;;;;;;6335126;22;20196;-83
2023/08/27 12:48:14;;;;;;;0.75;0.75;;;35.60;43.40;;;;;;6335016;22;20168;-84
2023/08/27 12:50:42;;;;;;;0.68;0.68;;;35.60;43.30;;;;;;6336145;22;20161;-86
2023/08/27 12:53:13;;;;;;;0.57;0.50;;;35.60;42.60;;;;;;6334848;22;20494;-86
2023/08/27 12:55:42;;;;;;;0.55;0.55;;;35.60;42.80;;;;;;6335453;22;20160;-86
2023/08/27 12:58:10;;;;;;;0.40;0.40;;;35.70;43.10;;;;;;6334231;22;20171;-83
2023/08/27 13:00:38;;;;;;;0.63;0.63;;;35.60;42.20;;;;;;6334894;22;20644;-85
2023/08/27 13:03:07;;;;;;;3.75;1.25;;;35.70;42.30;;;;;;6336967;22;20192;-83
2023/08/27 13:05:43;;;;;;;0.30;0.30;;;35.60;41.50;;;;;;6346396;22;20169;-84
2023/08/27 13:08:36;;;;;;;0.30;0.30;;;35.70;42.10;;;;;;6337596;22;20243;-85
2023/08/27 13:11:04;;;;;;;0.30;0.30;;;35.70;42.50;;;;;;6310325;22;20175;-84
2023/08/27 13:13:33;;;;;;;0.32;0.30;;;35.80;42.50;;;;;;6341632;22;20191;-86
2023/08/27 13:16:01;;;;;;;0.55;0.55;;;35.80;42.40;;;;;;6346844;22;20171;-85
2023/08/27 13:18:35;;;;;;;1.15;0.80;;;35.80;41.80;;;;;;6339604;22;20165;-84
2023/08/27 13:21:13;;;;;;;2.13;0.63;;;35.80;41.60;;;;;;6338666;22;20160;-84
2023/08/27 13:23:44;;;;;;;1.15;0.73;;;35.80;42.10;;;;;;6332852;22;20202;-85
2023/08/27 13:26:13;;;;;;;0.63;0.55;;;35.90;42.20;;;;;;6335700;22;20249;-86
2023/08/27 13:28:41;;;;;;;0.30;0.30;;;35.90;42.20;;;;;;6335915;22;20168;-86
2023/08/27 13:31:10;;;;;;;1.13;0.88;;;35.90;41.90;;;;;;6336755;22;20188;-87
2023/08/27 13:33:39;;;;;;;0.20;0.20;;;36.00;41.40;;;;;;6339189;22;20251;-87
2023/08/27 13:36:09;;;;;;;9.55;0.98;;;36.10;41.10;;;;;;6338823;22;20164;-86
2023/08/27 13:38:39;;;;;;;0.40;0.40;;;36.10;40.80;;;;;;6336771;22;20165;-84
2023/08/27 13:41:07;;;;;;;0.22;0.22;;;36.20;41.20;;;;;;6337633;22;20671;-84
2023/08/27 13:47:37;;;;;;;0.88;0.35;;;36.30;39.50;;;;;;6316302;22;20168;-83
2023/08/27 13:50:18;;;;;;;0.40;0.40;;;36.30;40.10;;;;;;6338888;22;20196;-84
2023/08/27 13:52:48;;;;;;;0.82;0.60;;;36.30;40.10;;;;;;6334589;22;20240;-83
2023/08/27 13:55:17;;;;;;;0.40;0.40;;;36.40;39.60;;;;;;6334800;22;20211;-85
2023/08/27 13:57:46;;;;;;;0.57;0.52;;;36.40;39.60;;;;;;6335855;22;20529;-87
2023/08/27 14:00:18;;;;;;;2.05;0.65;;;36.40;39.90;;;;;;6333872;22;20161;-83
2023/08/27 14:02:55;;;;;;;0.70;0.70;;;36.50;39.40;;;;;;6335504;22;20613;-86
2023/08/27 14:05:29;;;;;;;1.85;1.25;;;36.50;39.50;;;;;;6337656;22;20193;-85
2023/08/27 14:07:58;;;;;;;0.25;0.25;;;36.70;39.90;;;;;;6336436;22;20172;-86
2023/08/27 14:10:29;;;;;;;0.40;0.40;;;37.00;40.00;;;;;;6336262;22;20496;-85
2023/08/27 14:12:57;;;;;;;0.30;0.30;;;37.00;39.90;;;;;;6335846;22;20517;-85
2023/08/27 14:15:25;;;;;;;2.95;0.50;;;37.60;39.20;;;;;;6336724;22;20171;-83
2023/08/27 14:17:54;;;;;;;0.40;0.40;;;38.40;38.90;;;;;;6336169;22;20509;-84
2023/08/27 14:20:24;;;;;;;0.40;0.40;;;38.30;38.50;;;;;;6335912;22;20164;-85
2023/08/27 14:22:52;;;;;;;0.40;0.40;;;38.00;39.00;;;;;;6335615;22;20168;-85
2023/08/27 14:25:21;;;;;;;1.13;0.63;;;38.20;38.40;;;;;;6334101;22;20200;-83
2023/08/27 14:27:52;;;;;;;0.30;0.30;;;38.40;38.40;;;;;;6333510;22;20538;-84
2023/08/27 14:30:24;;;;;;;0.60;0.57;;;38.00;38.50;;;;;;6333499;22;20246;-86
2023/08/27 14:32:52;;;;;;;0.30;0.30;;;37.90;38.80;;;;;;6335255;22;20168;-80
2023/08/27 14:35:21;;;;;;;0.30;0.30;;;37.70;38.90;;;;;;6333325;22;20173;-81
2023/08/27 14:37:49;;;;;;;1.55;1.27;;;37.60;39.10;;;;;;6334297;22;20677;-85
2023/08/27 14:40:18;;;;;;;0.40;0.40;;;37.80;38.80;;;;;;6334298;22;20164;-85
2023/08/27 14:42:46;;;;;;;0.40;0.40;;;39.20;38.00;;;;;;6333620;22;20168;-85
2023/08/27 14:45:19;;;;;;;0.20;0.20;;;39.00;38.10;;;;;;6335176;22;20188;-86
2023/08/27 14:47:52;;;;;;;0.63;0.63;;;38.70;37.20;;;;;;6335697;22;20156;-84
2023/08/27 14:50:30;;;;;;;1.60;0.73;;;38.40;36.50;;;;;;6336070;22;20166;-86
2023/08/27 14:52:59;;;;;;;0.50;0.50;;;38.20;37.60;;;;;;6334814;22;20189;-87
2023/08/27 14:55:28;;;;;;;0.57;0.40;;;38.20;38.20;;;;;;6335562;22;20604;-82
2023/08/27 14:57:57;;;;;;;0.30;0.30;;;38.30;37.70;;;;;;6334575;22;20171;-84
2023/08/27 15:00:28;;;;;;;0.60;0.55;;;38.10;36.80;;;;;;6335029;22;20164;-84
2023/08/27 15:02:57;;;;;;;0.30;0.30;;;38.00;37.30;;;;;;6335874;22;20195;-83
2023/08/27 15:05:26;;;;;;;0.93;0.82;;;37.90;37.60;;;;;;6333458;22;20198;-86
2023/08/27 15:07:58;;;;;;;0.30;0.30;;;37.90;37.60;;;;;;6335529;22;20164;-88
2023/08/27 15:11:20;;;;;;;;;;;;;;;;;;;;;